sensor_id;sensor_type;location;lat;lon;timestamp;P1;durP1;ratioP1;P2;durP2;ratioP2
11024;SDS011;22890;51.820;8.682;2022-08-19T00:01:31;9.13;;;5.00;;
11024;SDS011;22890;51.820;8.682;2022-08-19T00:04:04;6.27;;;4.23;;
11024;SDS011;22890;51.820;8.682;2022-08-19T00:06:36;7.43;;;5.07;;
11024;SDS011;22890;51.820;8.682;2022-08-19T00:09:05;6.33;;;4.87;;
11024;SDS011;22890;51.820;8.682;2022-08-19T00:11:34;10.47;;;5.17;;
11024;SDS011;22890;51.820;8.682;2022-08-19T00:14:06;6.03;;;4.80;;
11024;SDS011;22890;51.820;8.682;2022-08-19T00:16:36;6.43;;;4.73;;
11024;SDS011;22890;51.820;8.682;2022-08-19T00:19:05;7.43;;;4.90;;
11024;SDS011;22890;51.820;8.682;2022-08-19T00:21:32;5.50;;;4.73;;
11024;SDS011;22890;51.820;8.682;2022-08-19T00:23:58;7.50;;;4.97;;
11024;SDS011;22890;51.820;8.682;2022-08-19T00:26:27;5.80;;;5.10;;
11024;SDS011;22890;51.820;8.682;2022-08-19T00:28:54;8.17;;;5.00;;
11024;SDS011;22890;51.820;8.682;2022-08-19T00:31:21;7.40;;;5.27;;
11024;SDS011;22890;51.820;8.682;2022-08-19T00:33:47;6.60;;;5.23;;
11024;SDS011;22890;51.820;8.682;2022-08-19T00:36:19;6.27;;;4.90;;
11024;SDS011;22890;51.820;8.682;2022-08-19T00:38:46;11.63;;;5.17;;
11024;SDS011;22890;51.820;8.682;2022-08-19T00:41:14;5.60;;;4.93;;
11024;SDS011;22890;51.820;8.682;2022-08-19T00:43:57;7.17;;;5.13;;
11024;SDS011;22890;51.820;8.682;2022-08-19T00:46:29;6.33;;;4.50;;
11024;SDS011;22890;51.820;8.682;2022-08-19T00:48:57;5.43;;;4.90;;
11024;SDS011;22890;51.820;8.682;2022-08-19T00:51:25;8.07;;;5.20;;
11024;SDS011;22890;51.820;8.682;2022-08-19T00:53:55;4.97;;;4.47;;
11024;SDS011;22890;51.820;8.682;2022-08-19T00:56:24;5.80;;;5.20;;
11024;SDS011;22890;51.820;8.682;2022-08-19T00:58:54;8.33;;;5.27;;
11024;SDS011;22890;51.820;8.682;2022-08-19T01:01:22;9.37;;;5.97;;
11024;SDS011;22890;51.820;8.682;2022-08-19T01:03:49;7.77;;;5.13;;
11024;SDS011;22890;51.820;8.682;2022-08-19T01:06:23;6.43;;;5.83;;
11024;SDS011;22890;51.820;8.682;2022-08-19T01:08:51;8.50;;;6.47;;
11024;SDS011;22890;51.820;8.682;2022-08-19T01:11:19;10.40;;;6.03;;
11024;SDS011;22890;51.820;8.682;2022-08-19T01:13:46;6.80;;;5.90;;
11024;SDS011;22890;51.820;8.682;2022-08-19T01:16:15;7.10;;;5.90;;
11024;SDS011;22890;51.820;8.682;2022-08-19T01:18:44;7.93;;;5.60;;
11024;SDS011;22890;51.820;8.682;2022-08-19T01:23:57;10.33;;;6.77;;
11024;SDS011;22890;51.820;8.682;2022-08-19T01:26:24;8.97;;;6.10;;
11024;SDS011;22890;51.820;8.682;2022-08-19T01:28:54;9.00;;;6.00;;
11024;SDS011;22890;51.820;8.682;2022-08-19T01:31:26;9.93;;;6.60;;
11024;SDS011;22890;51.820;8.682;2022-08-19T01:33:58;11.13;;;6.93;;
11024;SDS011;22890;51.820;8.682;2022-08-19T01:36:33;7.63;;;6.07;;
11024;SDS011;22890;51.820;8.682;2022-08-19T01:39:02;7.97;;;6.40;;
11024;SDS011;22890;51.820;8.682;2022-08-19T01:41:31;6.70;;;6.00;;
11024;SDS011;22890;51.820;8.682;2022-08-19T01:43:58;9.00;;;6.90;;
11024;SDS011;22890;51.820;8.682;2022-08-19T01:46:43;12.80;;;6.50;;
11024;SDS011;22890;51.820;8.682;2022-08-19T01:49:10;12.23;;;6.67;;
11024;SDS011;22890;51.820;8.682;2022-08-19T01:51:37;7.87;;;6.10;;
11024;SDS011;22890;51.820;8.682;2022-08-19T01:54:05;7.93;;;5.30;;
11024;SDS011;22890;51.820;8.682;2022-08-19T01:56:33;10.33;;;6.03;;
11024;SDS011;22890;51.820;8.682;2022-08-19T01:59:00;8.17;;;6.47;;
11024;SDS011;22890;51.820;8.682;2022-08-19T02:01:30;5.70;;;5.20;;
11024;SDS011;22890;51.820;8.682;2022-08-19T02:03:58;7.93;;;6.00;;
11024;SDS011;22890;51.820;8.682;2022-08-19T02:06:27;8.87;;;5.77;;
11024;SDS011;22890;51.820;8.682;2022-08-19T02:08:54;8.80;;;5.07;;
11024;SDS011;22890;51.820;8.682;2022-08-19T02:11:24;5.87;;;5.20;;
11024;SDS011;22890;51.820;8.682;2022-08-19T02:13:54;7.73;;;5.67;;
11024;SDS011;22890;51.820;8.682;2022-08-19T02:16:21;8.90;;;6.00;;
11024;SDS011;22890;51.820;8.682;2022-08-19T02:18:48;7.00;;;5.13;;
11024;SDS011;22890;51.820;8.682;2022-08-19T02:21:16;6.00;;;5.40;;
11024;SDS011;22890;51.820;8.682;2022-08-19T02:23:44;10.83;;;6.30;;
11024;SDS011;22890;51.820;8.682;2022-08-19T02:26:11;6.53;;;5.93;;
11024;SDS011;22890;51.820;8.682;2022-08-19T02:28:38;7.87;;;6.17;;
11024;SDS011;22890;51.820;8.682;2022-08-19T02:31:13;6.67;;;5.47;;
11024;SDS011;22890;51.820;8.682;2022-08-19T02:33:45;6.40;;;5.80;;
11024;SDS011;22890;51.820;8.682;2022-08-19T02:36:13;8.50;;;5.90;;
11024;SDS011;22890;51.820;8.682;2022-08-19T02:38:41;6.07;;;5.47;;
11024;SDS011;22890;51.820;8.682;2022-08-19T02:41:21;8.13;;;5.67;;
11024;SDS011;22890;51.820;8.682;2022-08-19T02:43:52;7.47;;;5.47;;
11024;SDS011;22890;51.820;8.682;2022-08-19T02:46:44;6.87;;;5.30;;
11024;SDS011;22890;51.820;8.682;2022-08-19T02:49:13;6.53;;;5.63;;
11024;SDS011;22890;51.820;8.682;2022-08-19T02:51:43;6.87;;;5.57;;
11024;SDS011;22890;51.820;8.682;2022-08-19T02:54:11;9.23;;;5.70;;
11024;SDS011;22890;51.820;8.682;2022-08-19T02:56:39;5.67;;;5.17;;
11024;SDS011;22890;51.820;8.682;2022-08-19T02:59:07;6.70;;;5.37;;
11024;SDS011;22890;51.820;8.682;2022-08-19T03:01:37;7.03;;;6.33;;
11024;SDS011;22890;51.820;8.682;2022-08-19T03:04:07;7.20;;;6.20;;
11024;SDS011;22890;51.820;8.682;2022-08-19T03:06:36;7.17;;;6.17;;
11024;SDS011;22890;51.820;8.682;2022-08-19T03:09:04;7.70;;;6.10;;
11024;SDS011;22890;51.820;8.682;2022-08-19T03:11:31;7.60;;;5.90;;
11024;SDS011;22890;51.820;8.682;2022-08-19T03:13:59;7.63;;;6.47;;
11024;SDS011;22890;51.820;8.682;2022-08-19T03:16:27;7.80;;;6.50;;
11024;SDS011;22890;51.820;8.682;2022-08-19T03:18:59;6.60;;;5.90;;
11024;SDS011;22890;51.820;8.682;2022-08-19T03:21:28;7.13;;;6.33;;
11024;SDS011;22890;51.820;8.682;2022-08-19T03:23:58;6.53;;;5.83;;
11024;SDS011;22890;51.820;8.682;2022-08-19T03:26:26;6.87;;;5.87;;
11024;SDS011;22890;51.820;8.682;2022-08-19T03:28:53;7.30;;;6.37;;
11024;SDS011;22890;51.820;8.682;2022-08-19T03:31:24;9.40;;;5.70;;
11024;SDS011;22890;51.820;8.682;2022-08-19T03:34:15;7.23;;;5.97;;
11024;SDS011;22890;51.820;8.682;2022-08-19T03:36:43;8.37;;;5.60;;
11024;SDS011;22890;51.820;8.682;2022-08-19T03:39:11;7.07;;;6.37;;
11024;SDS011;22890;51.820;8.682;2022-08-19T03:41:40;7.70;;;6.17;;
11024;SDS011;22890;51.820;8.682;2022-08-19T03:44:12;9.97;;;6.70;;
11024;SDS011;22890;51.820;8.682;2022-08-19T03:46:43;6.07;;;5.53;;
11024;SDS011;22890;51.820;8.682;2022-08-19T03:49:10;8.27;;;6.77;;
11024;SDS011;22890;51.820;8.682;2022-08-19T03:51:39;7.90;;;6.20;;
11024;SDS011;22890;51.820;8.682;2022-08-19T03:54:10;7.80;;;6.03;;
11024;SDS011;22890;51.820;8.682;2022-08-19T03:56:39;10.30;;;6.57;;
11024;SDS011;22890;51.820;8.682;2022-08-19T03:59:08;6.83;;;6.17;;
11024;SDS011;22890;51.820;8.682;2022-08-19T04:01:36;11.00;;;6.20;;
11024;SDS011;22890;51.820;8.682;2022-08-19T04:04:03;7.17;;;6.20;;
11024;SDS011;22890;51.820;8.682;2022-08-19T04:06:31;7.17;;;5.83;;
11024;SDS011;22890;51.820;8.682;2022-08-19T04:09:05;7.63;;;5.83;;
11024;SDS011;22890;51.820;8.682;2022-08-19T04:11:39;8.43;;;5.30;;
11024;SDS011;22890;51.820;8.682;2022-08-19T04:14:14;19.60;;;5.57;;
11024;SDS011;22890;51.820;8.682;2022-08-19T04:16:44;11.30;;;6.37;;
11024;SDS011;22890;51.820;8.682;2022-08-19T04:19:12;4.60;;;4.20;;
11024;SDS011;22890;51.820;8.682;2022-08-19T04:21:40;5.70;;;4.13;;
11024;SDS011;22890;51.820;8.682;2022-08-19T04:24:10;6.53;;;4.77;;
11024;SDS011;22890;51.820;8.682;2022-08-19T04:26:37;4.60;;;4.20;;
11024;SDS011;22890;51.820;8.682;2022-08-19T04:29:06;6.50;;;4.03;;
11024;SDS011;22890;51.820;8.682;2022-08-19T04:31:38;4.50;;;3.67;;
11024;SDS011;22890;51.820;8.682;2022-08-19T04:34:07;4.90;;;4.07;;
11024;SDS011;22890;51.820;8.682;2022-08-19T04:36:37;4.47;;;3.67;;
11024;SDS011;22890;51.820;8.682;2022-08-19T04:39:11;4.80;;;3.70;;
11024;SDS011;22890;51.820;8.682;2022-08-19T04:41:42;6.37;;;5.03;;
11024;SDS011;22890;51.820;8.682;2022-08-19T04:44:29;9.40;;;5.67;;
11024;SDS011;22890;51.820;8.682;2022-08-19T04:47:00;11.30;;;6.17;;
11024;SDS011;22890;51.820;8.682;2022-08-19T04:49:36;8.17;;;7.00;;
11024;SDS011;22890;51.820;8.682;2022-08-19T04:52:02;7.90;;;6.33;;
11024;SDS011;22890;51.820;8.682;2022-08-19T04:54:29;8.23;;;6.17;;
11024;SDS011;22890;51.820;8.682;2022-08-19T04:57:05;6.33;;;5.70;;
11024;SDS011;22890;51.820;8.682;2022-08-19T04:59:34;6.90;;;6.20;;
11024;SDS011;22890;51.820;8.682;2022-08-19T05:02:02;9.83;;;6.90;;
11024;SDS011;22890;51.820;8.682;2022-08-19T05:04:30;7.93;;;7.13;;
11024;SDS011;22890;51.820;8.682;2022-08-19T05:06:58;10.97;;;8.10;;
11024;SDS011;22890;51.820;8.682;2022-08-19T05:09:27;8.73;;;7.50;;
11024;SDS011;22890;51.820;8.682;2022-08-19T05:12:15;11.03;;;8.80;;
11024;SDS011;22890;51.820;8.682;2022-08-19T05:14:42;11.97;;;8.90;;
11024;SDS011;22890;51.820;8.682;2022-08-19T05:17:11;11.03;;;8.40;;
11024;SDS011;22890;51.820;8.682;2022-08-19T05:19:53;13.23;;;8.27;;
11024;SDS011;22890;51.820;8.682;2022-08-19T05:22:38;13.97;;;9.10;;
11024;SDS011;22890;51.820;8.682;2022-08-19T05:25:06;9.87;;;8.43;;
11024;SDS011;22890;51.820;8.682;2022-08-19T05:27:39;11.63;;;7.27;;
11024;SDS011;22890;51.820;8.682;2022-08-19T05:30:06;10.70;;;7.97;;
11024;SDS011;22890;51.820;8.682;2022-08-19T05:32:33;9.93;;;7.10;;
11024;SDS011;22890;51.820;8.682;2022-08-19T05:35:00;9.33;;;6.60;;
11024;SDS011;22890;51.820;8.682;2022-08-19T05:37:27;11.53;;;7.40;;
11024;SDS011;22890;51.820;8.682;2022-08-19T05:39:54;9.07;;;7.30;;
11024;SDS011;22890;51.820;8.682;2022-08-19T05:42:22;10.83;;;8.20;;
11024;SDS011;22890;51.820;8.682;2022-08-19T05:44:49;9.60;;;8.30;;
11024;SDS011;22890;51.820;8.682;2022-08-19T05:47:17;11.77;;;8.00;;
11024;SDS011;22890;51.820;8.682;2022-08-19T05:49:45;11.13;;;8.63;;
11024;SDS011;22890;51.820;8.682;2022-08-19T05:52:13;16.60;;;10.93;;
11024;SDS011;22890;51.820;8.682;2022-08-19T05:54:44;13.60;;;10.23;;
11024;SDS011;22890;51.820;8.682;2022-08-19T05:57:17;12.77;;;11.27;;
11024;SDS011;22890;51.820;8.682;2022-08-19T05:59:44;15.43;;;11.27;;
11024;SDS011;22890;51.820;8.682;2022-08-19T06:02:14;13.33;;;11.50;;
11024;SDS011;22890;51.820;8.682;2022-08-19T06:04:41;17.07;;;12.13;;
11024;SDS011;22890;51.820;8.682;2022-08-19T06:07:08;17.53;;;13.33;;
11024;SDS011;22890;51.820;8.682;2022-08-19T06:09:38;14.27;;;12.60;;
11024;SDS011;22890;51.820;8.682;2022-08-19T06:12:05;16.60;;;11.50;;
11024;SDS011;22890;51.820;8.682;2022-08-19T06:14:33;16.60;;;12.10;;
11024;SDS011;22890;51.820;8.682;2022-08-19T06:17:07;15.43;;;12.43;;
11024;SDS011;22890;51.820;8.682;2022-08-19T06:19:34;19.77;;;11.70;;
11024;SDS011;22890;51.820;8.682;2022-08-19T06:22:06;14.63;;;12.23;;
11024;SDS011;22890;51.820;8.682;2022-08-19T06:24:33;14.97;;;11.43;;
11024;SDS011;22890;51.820;8.682;2022-08-19T06:27:01;16.70;;;11.63;;
11024;SDS011;22890;51.820;8.682;2022-08-19T06:29:29;20.40;;;13.17;;
11024;SDS011;22890;51.820;8.682;2022-08-19T06:31:57;18.67;;;12.20;;
11024;SDS011;22890;51.820;8.682;2022-08-19T06:34:26;23.43;;;13.80;;
11024;SDS011;22890;51.820;8.682;2022-08-19T06:36:54;23.70;;;14.80;;
11024;SDS011;22890;51.820;8.682;2022-08-19T06:39:24;20.70;;;13.53;;
11024;SDS011;22890;51.820;8.682;2022-08-19T06:41:54;18.30;;;13.13;;
11024;SDS011;22890;51.820;8.682;2022-08-19T06:44:25;15.73;;;12.37;;
11024;SDS011;22890;51.820;8.682;2022-08-19T06:46:55;15.20;;;12.43;;
11024;SDS011;22890;51.820;8.682;2022-08-19T06:49:23;16.40;;;12.13;;
11024;SDS011;22890;51.820;8.682;2022-08-19T06:51:51;18.80;;;12.23;;
11024;SDS011;22890;51.820;8.682;2022-08-19T06:54:18;16.80;;;11.30;;
11024;SDS011;22890;51.820;8.682;2022-08-19T06:56:45;14.53;;;10.53;;
11024;SDS011;22890;51.820;8.682;2022-08-19T06:59:19;13.23;;;10.17;;
11024;SDS011;22890;51.820;8.682;2022-08-19T07:01:49;14.50;;;10.30;;
11024;SDS011;22890;51.820;8.682;2022-08-19T07:04:19;12.93;;;9.70;;
11024;SDS011;22890;51.820;8.682;2022-08-19T07:06:48;15.17;;;10.17;;
11024;SDS011;22890;51.820;8.682;2022-08-19T07:09:20;12.73;;;10.57;;
11024;SDS011;22890;51.820;8.682;2022-08-19T07:11:48;12.73;;;9.53;;
11024;SDS011;22890;51.820;8.682;2022-08-19T07:14:17;10.80;;;9.67;;
11024;SDS011;22890;51.820;8.682;2022-08-19T07:16:47;10.80;;;9.67;;
11024;SDS011;22890;51.820;8.682;2022-08-19T07:19:16;12.60;;;10.17;;
11024;SDS011;22890;51.820;8.682;2022-08-19T07:21:45;13.33;;;10.17;;
11024;SDS011;22890;51.820;8.682;2022-08-19T07:24:12;11.87;;;10.67;;
11024;SDS011;22890;51.820;8.682;2022-08-19T07:26:41;13.13;;;9.87;;
11024;SDS011;22890;51.820;8.682;2022-08-19T07:29:09;10.43;;;9.10;;
11024;SDS011;22890;51.820;8.682;2022-08-19T07:31:38;12.83;;;8.50;;
11024;SDS011;22890;51.820;8.682;2022-08-19T07:34:09;10.63;;;8.60;;
11024;SDS011;22890;51.820;8.682;2022-08-19T07:36:38;9.50;;;8.50;;
11024;SDS011;22890;51.820;8.682;2022-08-19T07:39:08;10.23;;;7.87;;
11024;SDS011;22890;51.820;8.682;2022-08-19T07:41:40;12.63;;;8.53;;
11024;SDS011;22890;51.820;8.682;2022-08-19T07:44:08;13.03;;;7.87;;
11024;SDS011;22890;51.820;8.682;2022-08-19T07:46:36;11.40;;;8.33;;
11024;SDS011;22890;51.820;8.682;2022-08-19T07:49:06;9.57;;;7.27;;
11024;SDS011;22890;51.820;8.682;2022-08-19T07:51:34;10.43;;;8.13;;
11024;SDS011;22890;51.820;8.682;2022-08-19T07:54:02;9.57;;;6.60;;
11024;SDS011;22890;51.820;8.682;2022-08-19T07:56:29;9.03;;;7.13;;
11024;SDS011;22890;51.820;8.682;2022-08-19T07:58:56;9.53;;;6.37;;
11024;SDS011;22890;51.820;8.682;2022-08-19T08:01:23;12.43;;;6.87;;
11024;SDS011;22890;51.820;8.682;2022-08-19T08:03:55;7.87;;;6.67;;
11024;SDS011;22890;51.820;8.682;2022-08-19T08:06:42;11.93;;;6.00;;
11024;SDS011;22890;51.820;8.682;2022-08-19T08:09:35;11.03;;;7.50;;
11024;SDS011;22890;51.820;8.682;2022-08-19T08:15:00;9.33;;;6.90;;
11024;SDS011;22890;51.820;8.682;2022-08-19T08:17:33;10.77;;;7.07;;
11024;SDS011;22890;51.820;8.682;2022-08-19T08:20:17;9.97;;;6.17;;
11024;SDS011;22890;51.820;8.682;2022-08-19T08:22:45;6.53;;;5.87;;
11024;SDS011;22890;51.820;8.682;2022-08-19T08:25:31;8.37;;;6.00;;
11024;SDS011;22890;51.820;8.682;2022-08-19T08:27:59;6.40;;;5.47;;
11024;SDS011;22890;51.820;8.682;2022-08-19T08:30:27;8.07;;;5.50;;
11024;SDS011;22890;51.820;8.682;2022-08-19T08:32:58;6.17;;;5.20;;
11024;SDS011;22890;51.820;8.682;2022-08-19T08:35:24;5.63;;;5.13;;
11024;SDS011;22890;51.820;8.682;2022-08-19T08:37:52;8.17;;;5.90;;
11024;SDS011;22890;51.820;8.682;2022-08-19T08:40:37;6.87;;;5.20;;
11024;SDS011;22890;51.820;8.682;2022-08-19T08:43:21;8.10;;;5.60;;
11024;SDS011;22890;51.820;8.682;2022-08-19T08:45:51;8.00;;;5.70;;
11024;SDS011;22890;51.820;8.682;2022-08-19T08:51:23;6.63;;;5.97;;
11024;SDS011;22890;51.820;8.682;2022-08-19T08:54:00;9.20;;;5.77;;
11024;SDS011;22890;51.820;8.682;2022-08-19T08:56:30;8.07;;;5.40;;
11024;SDS011;22890;51.820;8.682;2022-08-19T08:59:03;10.83;;;5.83;;
11024;SDS011;22890;51.820;8.682;2022-08-19T09:01:34;5.13;;;4.67;;
11024;SDS011;22890;51.820;8.682;2022-08-19T09:04:03;6.40;;;5.57;;
11024;SDS011;22890;51.820;8.682;2022-08-19T09:06:34;7.20;;;5.23;;
11024;SDS011;22890;51.820;8.682;2022-08-19T09:12:06;5.57;;;4.97;;
11024;SDS011;22890;51.820;8.682;2022-08-19T09:14:53;6.60;;;4.73;;
11024;SDS011;22890;51.820;8.682;2022-08-19T09:17:39;5.73;;;5.23;;
11024;SDS011;22890;51.820;8.682;2022-08-19T09:22:37;5.53;;;4.17;;
11024;SDS011;22890;51.820;8.682;2022-08-19T09:25:05;5.30;;;4.13;;
11024;SDS011;22890;51.820;8.682;2022-08-19T09:27:33;8.93;;;4.43;;
11024;SDS011;22890;51.820;8.682;2022-08-19T09:30:10;5.97;;;4.90;;
11024;SDS011;22890;51.820;8.682;2022-08-19T09:32:41;6.70;;;4.83;;
11024;SDS011;22890;51.820;8.682;2022-08-19T09:35:09;7.07;;;4.70;;
11024;SDS011;22890;51.820;8.682;2022-08-19T09:37:37;4.70;;;4.20;;
11024;SDS011;22890;51.820;8.682;2022-08-19T09:40:05;5.43;;;4.40;;
11024;SDS011;22890;51.820;8.682;2022-08-19T09:42:34;6.00;;;4.63;;
11024;SDS011;22890;51.820;8.682;2022-08-19T09:45:01;4.40;;;3.83;;
11024;SDS011;22890;51.820;8.682;2022-08-19T09:47:35;4.50;;;3.37;;
11024;SDS011;22890;51.820;8.682;2022-08-19T09:50:06;4.53;;;4.10;;
11024;SDS011;22890;51.820;8.682;2022-08-19T09:52:35;6.40;;;3.90;;
11024;SDS011;22890;51.820;8.682;2022-08-19T09:55:07;4.87;;;3.43;;
11024;SDS011;22890;51.820;8.682;2022-08-19T09:57:35;4.37;;;3.87;;
11024;SDS011;22890;51.820;8.682;2022-08-19T10:00:03;5.27;;;3.20;;
11024;SDS011;22890;51.820;8.682;2022-08-19T10:02:31;6.53;;;3.87;;
11024;SDS011;22890;51.820;8.682;2022-08-19T10:04:59;7.33;;;3.70;;
11024;SDS011;22890;51.820;8.682;2022-08-19T10:07:51;3.80;;;3.50;;
11024;SDS011;22890;51.820;8.682;2022-08-19T10:10:21;5.37;;;2.70;;
11024;SDS011;22890;51.820;8.682;2022-08-19T10:12:49;4.93;;;2.90;;
11024;SDS011;22890;51.820;8.682;2022-08-19T10:15:16;6.20;;;4.37;;
11024;SDS011;22890;51.820;8.682;2022-08-19T10:17:54;5.03;;;3.63;;
11024;SDS011;22890;51.820;8.682;2022-08-19T10:20:23;4.80;;;4.40;;
11024;SDS011;22890;51.820;8.682;2022-08-19T10:22:50;4.00;;;3.47;;
11024;SDS011;22890;51.820;8.682;2022-08-19T10:25:18;4.47;;;3.20;;
11024;SDS011;22890;51.820;8.682;2022-08-19T10:27:45;3.17;;;2.90;;
11024;SDS011;22890;51.820;8.682;2022-08-19T10:30:16;4.53;;;3.73;;
11024;SDS011;22890;51.820;8.682;2022-08-19T10:32:45;3.53;;;3.23;;
11024;SDS011;22890;51.820;8.682;2022-08-19T10:35:12;3.47;;;3.10;;
11024;SDS011;22890;51.820;8.682;2022-08-19T10:37:47;4.57;;;3.90;;
11024;SDS011;22890;51.820;8.682;2022-08-19T10:40:26;3.60;;;3.30;;
11024;SDS011;22890;51.820;8.682;2022-08-19T10:42:54;3.20;;;3.00;;
11024;SDS011;22890;51.820;8.682;2022-08-19T10:45:22;3.60;;;3.30;;
11024;SDS011;22890;51.820;8.682;2022-08-19T10:47:53;8.07;;;4.30;;
11024;SDS011;22890;51.820;8.682;2022-08-19T10:50:20;3.93;;;3.63;;
11024;SDS011;22890;51.820;8.682;2022-08-19T10:53:07;4.30;;;3.30;;
11024;SDS011;22890;51.820;8.682;2022-08-19T10:55:35;4.10;;;3.30;;
11024;SDS011;22890;51.820;8.682;2022-08-19T10:58:21;4.03;;;2.90;;
11024;SDS011;22890;51.820;8.682;2022-08-19T11:00:51;4.77;;;3.30;;
11024;SDS011;22890;51.820;8.682;2022-08-19T11:03:23;4.77;;;3.80;;
11024;SDS011;22890;51.820;8.682;2022-08-19T11:05:58;8.73;;;3.40;;
11024;SDS011;22890;51.820;8.682;2022-08-19T11:08:26;3.27;;;2.97;;
11024;SDS011;22890;51.820;8.682;2022-08-19T11:10:53;3.80;;;2.90;;
11024;SDS011;22890;51.820;8.682;2022-08-19T11:13:30;3.47;;;2.33;;
11024;SDS011;22890;51.820;8.682;2022-08-19T11:16:10;3.93;;;2.33;;
11024;SDS011;22890;51.820;8.682;2022-08-19T11:18:44;3.87;;;2.90;;
11024;SDS011;22890;51.820;8.682;2022-08-19T11:21:14;2.73;;;2.43;;
11024;SDS011;22890;51.820;8.682;2022-08-19T11:23:43;3.07;;;2.30;;
11024;SDS011;22890;51.820;8.682;2022-08-19T11:26:10;2.20;;;2.00;;
11024;SDS011;22890;51.820;8.682;2022-08-19T11:28:37;2.20;;;1.90;;
11024;SDS011;22890;51.820;8.682;2022-08-19T11:31:08;2.77;;;2.10;;
11024;SDS011;22890;51.820;8.682;2022-08-19T11:33:40;5.73;;;2.00;;
11024;SDS011;22890;51.820;8.682;2022-08-19T11:36:12;1.97;;;1.87;;
11024;SDS011;22890;51.820;8.682;2022-08-19T11:38:40;2.63;;;2.17;;
11024;SDS011;22890;51.820;8.682;2022-08-19T11:41:06;2.50;;;2.30;;
11024;SDS011;22890;51.820;8.682;2022-08-19T11:43:34;2.43;;;2.00;;
11024;SDS011;22890;51.820;8.682;2022-08-19T11:46:06;1.80;;;1.70;;
11024;SDS011;22890;51.820;8.682;2022-08-19T11:48:36;2.40;;;2.20;;
11024;SDS011;22890;51.820;8.682;2022-08-19T11:51:04;2.07;;;1.97;;
11024;SDS011;22890;51.820;8.682;2022-08-19T11:53:33;2.63;;;2.40;;
11024;SDS011;22890;51.820;8.682;2022-08-19T11:56:00;1.97;;;1.87;;
11024;SDS011;22890;51.820;8.682;2022-08-19T11:58:27;2.30;;;2.10;;
11024;SDS011;22890;51.820;8.682;2022-08-19T12:00:55;1.93;;;1.83;;
11024;SDS011;22890;51.820;8.682;2022-08-19T12:03:22;1.87;;;1.77;;
11024;SDS011;22890;51.820;8.682;2022-08-19T12:05:48;1.87;;;1.77;;
11024;SDS011;22890;51.820;8.682;2022-08-19T12:08:16;2.30;;;1.80;;
11024;SDS011;22890;51.820;8.682;2022-08-19T12:10:43;1.90;;;1.80;;
11024;SDS011;22890;51.820;8.682;2022-08-19T12:13:12;2.17;;;2.00;;
11024;SDS011;22890;51.820;8.682;2022-08-19T12:15:46;1.97;;;1.83;;
11024;SDS011;22890;51.820;8.682;2022-08-19T12:18:13;2.83;;;1.80;;
11024;SDS011;22890;51.820;8.682;2022-08-19T12:20:40;1.90;;;1.60;;
11024;SDS011;22890;51.820;8.682;2022-08-19T12:23:08;2.10;;;1.90;;
11024;SDS011;22890;51.820;8.682;2022-08-19T12:25:36;2.57;;;1.93;;
11024;SDS011;22890;51.820;8.682;2022-08-19T12:28:14;2.77;;;2.13;;
11024;SDS011;22890;51.820;8.682;2022-08-19T12:30:41;3.03;;;1.73;;
11024;SDS011;22890;51.820;8.682;2022-08-19T12:33:08;2.07;;;1.70;;
11024;SDS011;22890;51.820;8.682;2022-08-19T12:35:38;2.13;;;1.70;;
11024;SDS011;22890;51.820;8.682;2022-08-19T12:38:11;2.37;;;2.00;;
11024;SDS011;22890;51.820;8.682;2022-08-19T12:40:41;2.77;;;2.10;;
11024;SDS011;22890;51.820;8.682;2022-08-19T12:43:11;2.17;;;1.77;;
11024;SDS011;22890;51.820;8.682;2022-08-19T12:45:38;2.40;;;2.20;;
11024;SDS011;22890;51.820;8.682;2022-08-19T12:48:06;3.53;;;2.23;;
11024;SDS011;22890;51.820;8.682;2022-08-19T12:50:52;2.57;;;1.80;;
11024;SDS011;22890;51.820;8.682;2022-08-19T12:53:20;3.43;;;2.20;;
11024;SDS011;22890;51.820;8.682;2022-08-19T12:55:46;1.80;;;1.70;;
11024;SDS011;22890;51.820;8.682;2022-08-19T12:58:13;3.10;;;2.00;;
11024;SDS011;22890;51.820;8.682;2022-08-19T13:00:40;2.40;;;2.20;;
11024;SDS011;22890;51.820;8.682;2022-08-19T13:03:06;2.37;;;2.13;;
11024;SDS011;22890;51.820;8.682;2022-08-19T13:05:33;2.50;;;2.30;;
11024;SDS011;22890;51.820;8.682;2022-08-19T13:08:00;2.57;;;2.30;;
11024;SDS011;22890;51.820;8.682;2022-08-19T13:10:31;2.77;;;2.00;;
11024;SDS011;22890;51.820;8.682;2022-08-19T13:13:03;4.63;;;2.30;;
11024;SDS011;22890;51.820;8.682;2022-08-19T13:15:35;2.97;;;2.07;;
11024;SDS011;22890;51.820;8.682;2022-08-19T13:18:03;4.33;;;2.43;;
11024;SDS011;22890;51.820;8.682;2022-08-19T13:20:30;2.30;;;2.07;;
11024;SDS011;22890;51.820;8.682;2022-08-19T13:22:56;3.93;;;2.63;;
11024;SDS011;22890;51.820;8.682;2022-08-19T13:25:23;2.20;;;2.10;;
11024;SDS011;22890;51.820;8.682;2022-08-19T13:27:51;2.73;;;2.50;;
11024;SDS011;22890;51.820;8.682;2022-08-19T13:30:18;2.30;;;2.10;;
11024;SDS011;22890;51.820;8.682;2022-08-19T13:33:05;2.67;;;2.47;;
11024;SDS011;22890;51.820;8.682;2022-08-19T13:35:42;3.63;;;2.20;;
11024;SDS011;22890;51.820;8.682;2022-08-19T13:38:10;2.27;;;2.13;;
11024;SDS011;22890;51.820;8.682;2022-08-19T13:40:37;2.87;;;2.17;;
11024;SDS011;22890;51.820;8.682;2022-08-19T13:43:06;4.77;;;2.50;;
11024;SDS011;22890;51.820;8.682;2022-08-19T13:45:48;3.37;;;2.37;;
11024;SDS011;22890;51.820;8.682;2022-08-19T13:48:22;3.03;;;2.40;;
11024;SDS011;22890;51.820;8.682;2022-08-19T13:50:52;4.57;;;2.47;;
11024;SDS011;22890;51.820;8.682;2022-08-19T13:53:20;2.60;;;2.40;;
11024;SDS011;22890;51.820;8.682;2022-08-19T13:55:46;3.03;;;2.37;;
11024;SDS011;22890;51.820;8.682;2022-08-19T13:58:13;2.80;;;2.37;;
11024;SDS011;22890;51.820;8.682;2022-08-19T14:00:41;2.37;;;2.17;;
11024;SDS011;22890;51.820;8.682;2022-08-19T14:03:10;3.17;;;2.50;;
11024;SDS011;22890;51.820;8.682;2022-08-19T14:05:37;2.20;;;2.07;;
11024;SDS011;22890;51.820;8.682;2022-08-19T14:13:01;2.50;;;2.30;;
11024;SDS011;22890;51.820;8.682;2022-08-19T14:15:29;4.23;;;2.70;;
11024;SDS011;22890;51.820;8.682;2022-08-19T14:17:57;3.20;;;2.90;;
11024;SDS011;22890;51.820;8.682;2022-08-19T14:20:23;3.37;;;2.70;;
11024;SDS011;22890;51.820;8.682;2022-08-19T14:22:51;2.90;;;2.53;;
11024;SDS011;22890;51.820;8.682;2022-08-19T14:25:20;2.50;;;2.30;;
11024;SDS011;22890;51.820;8.682;2022-08-19T14:27:49;2.67;;;2.47;;
11024;SDS011;22890;51.820;8.682;2022-08-19T14:30:17;3.73;;;2.70;;
11024;SDS011;22890;51.820;8.682;2022-08-19T14:32:49;3.47;;;2.73;;
11024;SDS011;22890;51.820;8.682;2022-08-19T14:35:15;2.80;;;2.60;;
11024;SDS011;22890;51.820;8.682;2022-08-19T14:37:43;2.73;;;2.53;;
11024;SDS011;22890;51.820;8.682;2022-08-19T14:40:15;3.50;;;3.00;;
11024;SDS011;22890;51.820;8.682;2022-08-19T14:42:43;2.87;;;2.67;;
11024;SDS011;22890;51.820;8.682;2022-08-19T14:45:11;4.97;;;2.63;;
11024;SDS011;22890;51.820;8.682;2022-08-19T14:47:38;2.60;;;2.40;;
11024;SDS011;22890;51.820;8.682;2022-08-19T14:50:06;2.70;;;2.50;;
11024;SDS011;22890;51.820;8.682;2022-08-19T14:52:43;2.90;;;2.60;;
11024;SDS011;22890;51.820;8.682;2022-08-19T14:55:09;2.60;;;2.40;;
11024;SDS011;22890;51.820;8.682;2022-08-19T14:57:36;2.47;;;2.37;;
11024;SDS011;22890;51.820;8.682;2022-08-19T15:00:03;2.50;;;2.30;;
11024;SDS011;22890;51.820;8.682;2022-08-19T15:02:30;2.83;;;2.13;;
11024;SDS011;22890;51.820;8.682;2022-08-19T15:05:00;2.87;;;2.63;;
11024;SDS011;22890;51.820;8.682;2022-08-19T15:07:28;4.23;;;2.20;;
11024;SDS011;22890;51.820;8.682;2022-08-19T15:09:55;2.30;;;2.20;;
11024;SDS011;22890;51.820;8.682;2022-08-19T15:12:23;2.53;;;2.27;;
11024;SDS011;22890;51.820;8.682;2022-08-19T15:14:50;2.67;;;2.50;;
11024;SDS011;22890;51.820;8.682;2022-08-19T15:17:21;2.40;;;2.20;;
11024;SDS011;22890;51.820;8.682;2022-08-19T15:20:09;2.70;;;2.50;;